< Typhoon 198117 1981 Season Typhoon 198119 >
Typhoon 198118 (AGNES)
General InformationTrack Information on Google MapsDetailed Wind InformationList of All Images || Disaster Info.ResourceGoogle EarthGE AnimationAtom FeedGeoJSON
Detalied Best Track (Time Zone = UTC)
Year Month Day Hour Lat. Long. Pressure (hPa) Wind (kt) Class Image Chart
1981 8 25 06 16.0 148.0 1006 0 2 Image Chart
1981 8 25 12 16.1 146.8 1008 0 2 Image Chart
1981 8 25 18 16.3 145.6 1008 0 2 Image Chart
1981 8 26 00 16.4 144.4 1006 0 2 Image Chart
1981 8 26 06 16.6 143.2 1006 0 2 Image Chart
1981 8 26 12 16.8 142.0 1004 0 2 Image Chart
1981 8 26 18 17.1 140.8 1000 0 2 Image Chart
1981 8 27 00 17.4 139.6 996 45 3 Image Chart
1981 8 27 06 17.8 138.3 994 45 3 Image Chart
1981 8 27 12 18.4 136.9 992 45 3 Image Chart
1981 8 27 18 19.0 135.6 990 45 3 Image Chart
1981 8 28 00 19.3 135.1 985 50 4 Image Chart
1981 8 28 06 19.9 134.0 985 50 4 Image Chart
1981 8 28 12 20.4 133.0 980 55 4 Image Chart
1981 8 28 18 20.9 131.9 975 60 4 Image Chart
1981 8 29 00 21.5 131.0 975 60 4 Image Chart
1981 8 29 06 22.3 130.1 975 60 4 Image Chart
1981 8 29 12 22.9 129.0 970 60 4 Image Chart
1981 8 29 18 23.5 128.0 965 70 5 Image Chart
1981 8 30 00 24.3 127.3 960 70 5 Image Chart
1981 8 30 06 24.9 126.5 955 80 5 Image Chart
1981 8 30 12 25.5 126.1 955 80 5 Image Chart
1981 8 30 18 26.4 125.1 950 80 5 Image Chart
1981 8 31 00 27.3 124.6 950 80 5 Image Chart
1981 8 31 06 28.2 124.2 950 80 5 Image Chart
1981 8 31 12 29.0 123.7 950 80 5 Image Chart
1981 8 31 18 29.8 123.4 955 80 5 Image Chart
1981 9 1 00 30.5 123.4 955 80 5 Image Chart
1981 9 1 06 30.8 123.4 955 80 5 Image Chart
1981 9 1 12 31.2 123.5 960 70 5 Image Chart
1981 9 1 18 31.6 123.5 965 60 4 Image Chart
1981 9 2 00 32.2 123.5 970 55 4 Image Chart
1981 9 2 06 32.5 123.9 975 55 4 Image Chart
1981 9 2 12 32.6 124.4 975 55 4 Image Chart
1981 9 2 18 32.8 125.0 975 50 4 Image Chart
1981 9 3 00 33.0 125.6 975 50 4 Image Chart
1981 9 3 06 33.8 127.4 980 40 3 Image Chart
1981 9 3 12 34.5 128.5 985 40 3 Image Chart
1981 9 3 18 37.0 133.0 988 0 6 Image Chart
1981 9 4 00 40.0 137.0 984 0 6 Image Chart
1981 9 4 06 42.0 140.5 976 0 6 Image Chart
1981 9 4 12 45.0 145.0 978 0 6 Image Chart
1981 9 4 18 47.0 147.0 978 0 6 Image Chart
1981 9 5 00 48.5 149.0 978 0 6 Image Chart
1981 9 5 06 50.0 151.0 978 0 6 Image Chart
1981 9 5 12 51.0 154.0 978 0 6 Image Chart
1981 9 5 18 52.0 157.0 980 0 6 Image Chart
1981 9 6 00 52.0 162.0 980 0 6 Image Chart
1981 9 6 06 53.0 169.0 980 0 6 Image Chart
1981 9 6 12 53.0 176.0 980 0 6 Image Chart
Japan Meteorological Agency Best Track Data | Correction Date : 1992-10-21
< Typhoon 198117 1981 Season Typhoon 198119 >

Help